Time;durP1;ratioP1;P1;durP2;ratioP2;P2;SDS_P1;SDS_P2;PMS_P1;PMS_P2;Temp;Humidity;BMP_temperature;BMP_pressure;BME280_temperature;BME280_humidity;BME280_pressure;Samples;Min_cycle;Max_cycle;Signal;HPM_P1;HPM_P2
2023/10/03 00:01:52;;;;;;;32.83;18.05;;;;;;;19.77;77.51;100819.41;3615540;39;20043;-65
2023/10/03 00:04:19;;;;;;;31.67;17.55;;;;;;;19.75;77.96;100807.78;3613700;39;20412;-66
2023/10/03 00:06:46;;;;;;;32.20;17.92;;;;;;;19.70;77.75;100794.63;3616536;39;20042;-68
2023/10/03 00:09:12;;;;;;;30.58;17.63;;;;;;;19.76;77.87;100795.84;3606163;39;20119;-68
2023/10/03 00:11:38;;;;;;;32.65;17.15;;;;;;;19.76;77.81;100794.00;3616147;39;20063;-67
2023/10/03 00:14:07;;;;;;;33.63;18.10;;;;;;;19.74;78.08;100790.56;3606178;39;20057;-68
2023/10/03 00:16:34;;;;;;;33.10;18.05;;;;;;;19.73;78.20;100780.69;3614777;39;20054;-67
2023/10/03 00:19:00;;;;;;;36.40;18.10;;;;;;;19.72;77.56;100776.22;3616650;39;20104;-67
2023/10/03 00:21:25;;;;;;;35.20;18.20;;;;;;;19.71;77.41;100775.34;3614171;39;20058;-67
2023/10/03 00:23:51;;;;;;;30.65;17.73;;;;;;;19.67;77.97;100770.38;3618663;39;20087;-68
2023/10/03 00:26:17;;;;;;;30.15;17.90;;;;;;;19.73;78.16;100777.06;3613401;39;20058;-67
2023/10/03 00:28:44;;;;;;;32.63;18.23;;;;;;;19.71;77.52;100766.31;3615507;39;20046;-67
2023/10/03 00:31:13;;;;;;;32.92;17.45;;;;;;;19.47;77.75;100728.72;3614103;39;20394;-68
2023/10/03 00:33:41;;;;;;;31.65;18.42;;;;;;;19.68;77.67;100761.19;3617321;39;20073;-67
2023/10/03 00:36:24;;;;;;;32.22;17.15;;;;;;;19.47;77.64;100735.06;3616095;39;20047;-67
2023/10/03 00:38:50;;;;;;;34.67;17.80;;;;;;;19.65;78.33;100758.75;3619292;39;20138;-67
2023/10/03 00:41:19;;;;;;;33.00;17.98;;;;;;;19.60;78.43;100751.03;3616529;39;20061;-67
2023/10/03 00:44:01;;;;;;;31.13;17.15;;;;;;;19.58;78.29;100747.59;3618567;39;20046;-68
2023/10/03 00:46:29;;;;;;;30.25;18.35;;;;;;;19.48;78.41;100728.56;3614758;39;20268;-67
2023/10/03 00:48:56;;;;;;;30.83;17.42;;;;;;;19.53;78.60;100733.56;3620723;39;20090;-68
2023/10/03 00:51:25;;;;;;;29.75;16.98;;;;;;;19.45;78.43;100711.69;3619452;39;20042;-67
2023/10/03 00:53:56;;;;;;;31.10;17.70;;;;;;;19.36;78.35;100696.25;3618471;39;20050;-68
2023/10/03 00:56:22;;;;;;;32.63;18.60;;;;;;;19.42;78.88;100692.91;3615843;39;20057;-68
2023/10/03 00:58:48;;;;;;;31.33;17.33;;;;;;;19.37;78.62;100689.78;3619260;39;20055;-69
2023/10/03 01:01:15;;;;;;;33.88;18.50;;;;;;;19.48;79.24;100704.03;3618669;39;20347;-68
2023/10/03 01:03:40;;;;;;;32.00;17.90;;;;;;;19.46;79.07;100695.16;3617798;39;20059;-68
2023/10/03 01:06:13;;;;;;;33.47;17.88;;;;;;;19.46;79.23;100689.69;3618011;39;20050;-69
2023/10/03 01:08:47;;;;;;;33.42;18.15;;;;;;;19.46;78.66;100688.84;3618637;39;20070;-68
2023/10/03 01:11:19;;;;;;;33.15;18.00;;;;;;;19.45;79.08;100676.22;3619629;39;20055;-67
2023/10/03 01:13:48;;;;;;;29.13;16.50;;;;;;;19.44;78.87;100675.38;3618234;39;20051;-66
2023/10/03 01:16:27;;;;;;;35.97;17.90;;;;;;;19.45;78.87;100671.63;3618126;39;20301;-67
2023/10/03 01:18:53;;;;;;;30.90;17.83;;;;;;;19.40;79.49;100652.16;3617233;39;20067;-68
2023/10/03 01:21:21;;;;;;;34.60;17.83;;;;;;;19.41;79.17;100653.88;3616109;39;20386;-68
2023/10/03 01:23:47;;;;;;;29.50;17.45;;;;;;;19.37;79.64;100659.78;3617013;39;20377;-68
2023/10/03 01:26:14;;;;;;;31.20;17.42;;;;;;;19.40;79.54;100663.06;3618100;39;20057;-68
2023/10/03 01:28:40;;;;;;;31.25;16.88;;;;;;;19.39;79.35;100660.50;3618673;39;20313;-68
2023/10/03 01:31:06;;;;;;;30.40;16.70;;;;;;;19.41;78.67;100651.16;3616389;39;20038;-67
2023/10/03 01:33:34;;;;;;;31.42;17.55;;;;;;;19.46;78.27;100647.94;3617256;39;20107;-67
2023/10/03 01:36:01;;;;;;;30.63;17.00;;;;;;;19.51;77.67;100661.13;3616336;39;20042;-68
2023/10/03 01:38:27;;;;;;;34.15;16.90;;;;;;;19.55;77.89;100657.06;3616685;39;20054;-67
2023/10/03 01:40:54;;;;;;;29.80;16.45;;;;;;;19.58;77.40;100638.50;3618294;39;20101;-67
2023/10/03 01:43:20;;;;;;;28.73;16.02;;;;;;;19.51;77.09;100614.78;3616088;39;20508;-68
2023/10/03 01:45:46;;;;;;;28.52;15.38;;;;;;;19.68;76.42;100628.38;3617786;39;20058;-69
2023/10/03 01:48:12;;;;;;;29.50;15.85;;;;;;;19.74;76.32;100647.88;3616901;39;20050;-68
2023/10/03 01:50:38;;;;;;;27.52;15.73;;;;;;;19.77;76.08;100647.56;3618459;39;20127;-68
2023/10/03 01:53:07;;;;;;;30.10;16.27;;;;;;;19.84;75.47;100643.16;3618913;39;20119;-67
2023/10/03 01:55:33;;;;;;;28.15;16.15;;;;;;;19.88;75.41;100641.81;3617611;39;20055;-68
2023/10/03 01:57:59;;;;;;;25.67;15.25;;;;;;;19.99;74.72;100646.19;3618221;39;20042;-67
2023/10/03 02:00:26;;;;;;;26.17;15.60;;;;;;;20.05;74.21;100635.47;3617045;39;20053;-68
2023/10/03 02:02:56;;;;;;;28.70;15.98;;;;;;;20.09;74.33;100628.66;3617152;39;20824;-68
2023/10/03 02:05:24;;;;;;;27.77;15.40;;;;;;;20.15;73.08;100633.50;3617962;39;20050;-67
2023/10/03 02:07:54;;;;;;;29.42;16.20;;;;;;;20.27;72.63;100635.94;3617633;39;20042;-67
2023/10/03 02:10:19;;;;;;;26.80;15.30;;;;;;;20.31;72.42;100630.00;3617843;39;20050;-67
2023/10/03 02:12:48;;;;;;;27.48;15.63;;;;;;;20.39;72.02;100631.88;3616054;39;20054;-67
2023/10/03 02:15:23;;;;;;;29.70;16.10;;;;;;;20.40;72.03;100629.00;3618182;39;20389;-66
2023/10/03 02:17:55;;;;;;;29.02;15.18;;;;;;;20.46;71.72;100622.03;3616941;39;20055;-67
2023/10/03 02:20:25;;;;;;;27.05;13.93;;;;;;;20.54;71.00;100613.06;3619053;39;20050;-67
2023/10/03 02:22:55;;;;;;;26.50;15.18;;;;;;;20.56;71.18;100611.03;3615772;39;20090;-68
2023/10/03 02:25:24;;;;;;;31.85;15.27;;;;;;;20.55;71.33;100587.44;3620266;39;20052;-68
2023/10/03 02:27:52;;;;;;;28.67;15.13;;;;;;;20.25;71.36;100542.44;3615756;39;20042;-68
2023/10/03 02:30:25;;;;;;;26.77;14.25;;;;;;;20.56;71.01;100611.88;3616581;39;20043;-67
2023/10/03 02:32:57;;;;;;;27.15;14.85;;;;;;;20.53;70.87;100628.59;3616642;39;20058;-67
2023/10/03 02:35:26;;;;;;;33.33;15.60;;;;;;;20.58;70.90;100619.88;3616580;39;20055;-67
2023/10/03 02:37:56;;;;;;;24.48;14.68;;;;;;;20.60;70.80;100620.59;3614217;39;20078;-67
2023/10/03 02:40:28;;;;;;;27.95;15.07;;;;;;;20.64;70.42;100621.97;3617414;39;20081;-67
2023/10/03 02:42:54;;;;;;;28.25;15.38;;;;;;;20.64;70.62;100620.06;3618714;39;20061;-67
2023/10/03 02:45:25;;;;;;;29.00;14.43;;;;;;;20.64;71.04;100628.28;3616840;39;20382;-68
2023/10/03 02:47:55;;;;;;;26.85;13.95;;;;;;;20.61;70.46;100617.72;3614497;39;20347;-68
2023/10/03 02:50:23;;;;;;;25.15;14.10;;;;;;;20.58;70.83;100614.41;3617315;39;20351;-67
2023/10/03 02:52:51;;;;;;;26.17;14.30;;;;;;;20.56;70.92;100620.06;3619390;39;20309;-67
2023/10/03 02:55:17;;;;;;;28.52;15.15;;;;;;;20.55;70.58;100622.94;3617803;39;20231;-67
2023/10/03 02:57:44;;;;;;;25.65;13.75;;;;;;;20.50;71.02;100626.16;3616796;39;20057;-66
2023/10/03 03:00:12;;;;;;;23.48;12.93;;;;;;;20.57;70.96;100635.41;3614871;39;20065;-67
2023/10/03 03:02:42;;;;;;;23.98;12.23;;;;;;;20.50;71.58;100612.50;3618899;39;20067;-67
2023/10/03 03:05:16;;;;;;;21.15;11.35;;;;;;;20.77;71.07;100626.94;3615327;39;20063;-67
2023/10/03 03:07:48;;;;;;;21.60;10.63;;;;;;;20.87;71.54;100635.88;3617061;39;20297;-67
2023/10/03 03:10:17;;;;;;;23.63;11.60;;;;;;;20.93;71.30;100629.75;3616295;39;20047;-66
2023/10/03 03:12:44;;;;;;;19.90;11.02;;;;;;;20.98;70.91;100623.78;3608163;39;20054;-67
2023/10/03 03:15:22;;;;;;;19.60;11.75;;;;;;;20.85;70.14;100607.88;3616454;39;20051;-68
2023/10/03 03:17:49;;;;;;;20.67;11.82;;;;;;;20.74;70.01;100586.31;3616385;39;20809;-67
2023/10/03 03:20:20;;;;;;;20.23;11.90;;;;;;;21.00;69.86;100624.47;3617500;39;20047;-67
2023/10/03 03:22:48;;;;;;;22.00;11.60;;;;;;;20.96;69.85;100623.94;3620165;39;20046;-66
2023/10/03 03:25:39;;;;;;;21.30;12.25;;;;;;;20.92;69.86;100628.03;3617597;39;20465;-66
2023/10/03 03:28:15;;;;;;;21.73;12.25;;;;;;;20.87;69.91;100624.97;3617663;39;20089;-67
2023/10/03 03:30:45;;;;;;;24.05;12.25;;;;;;;20.85;70.03;100629.72;3615660;39;20054;-67
2023/10/03 03:33:20;;;;;;;20.85;11.07;;;;;;;20.81;70.63;100631.09;3618030;39;20359;-67
2023/10/03 03:35:48;;;;;;;22.27;11.38;;;;;;;20.82;70.49;100621.84;3615244;39;20463;-67
2023/10/03 03:38:15;;;;;;;21.45;11.30;;;;;;;20.79;71.27;100630.38;3614502;39;20132;-65
2023/10/03 03:40:53;;;;;;;23.58;10.80;;;;;;;20.79;71.53;100627.66;3616394;39;20210;-68
2023/10/03 03:43:21;;;;;;;19.08;10.23;;;;;;;20.81;71.99;100621.00;3615992;39;20394;-67
2023/10/03 03:45:48;;;;;;;20.98;10.52;;;;;;;20.84;72.46;100628.03;3616831;39;20369;-68
2023/10/03 03:48:15;;;;;;;18.13;9.63;;;;;;;20.84;72.63;100620.69;3606468;39;20094;-67
2023/10/03 03:50:41;;;;;;;17.77;9.40;;;;;;;20.86;72.82;100626.81;3613953;39;20051;-67
2023/10/03 03:53:07;;;;;;;18.48;9.13;;;;;;;20.90;73.14;100629.22;3614356;39;20054;-67
2023/10/03 03:55:35;;;;;;;17.63;9.07;;;;;;;20.60;73.25;100585.94;3614365;39;20066;-66
2023/10/03 03:58:07;;;;;;;14.27;8.63;;;;;;;20.80;73.15;100619.28;3613832;39;20405;-67
2023/10/03 04:00:34;;;;;;;14.48;8.40;;;;;;;20.91;73.18;100637.25;3615054;39;20069;-67
2023/10/03 04:03:11;;;;;;;14.75;8.10;;;;;;;20.88;73.42;100643.06;3615691;39;20058;-67
2023/10/03 04:05:37;;;;;;;14.57;7.93;;;;;;;20.96;73.25;100653.13;3614820;39;20345;-66
2023/10/03 04:08:04;;;;;;;15.40;7.78;;;;;;;20.96;73.39;100655.88;3613570;39;20063;-66
2023/10/03 04:10:30;;;;;;;18.48;7.80;;;;;;;20.98;73.28;100646.50;3613334;39;20139;-66
2023/10/03 04:12:56;;;;;;;14.40;8.07;;;;;;;20.99;73.39;100650.06;3614863;39;20058;-66
2023/10/03 04:15:23;;;;;;;16.15;7.65;;;;;;;20.99;73.63;100669.19;3614134;39;20073;-67
2023/10/03 04:17:49;;;;;;;14.15;7.28;;;;;;;20.99;73.42;100661.84;3619273;39;20051;-66
2023/10/03 04:22:52;;;;;;;12.95;7.30;;;;;;;21.00;73.53;100671.78;3614704;39;20095;-66
2023/10/03 04:25:19;;;;;;;13.95;6.57;;;;;;;21.05;72.41;100669.38;3613064;39;20356;-65
2023/10/03 04:27:56;;;;;;;14.43;7.10;;;;;;;21.08;72.68;100681.88;3613148;39;20051;-66
2023/10/03 04:30:25;;;;;;;13.30;7.70;;;;;;;21.06;72.74;100684.78;3616969;39;20107;-66
2023/10/03 04:32:53;;;;;;;9.15;5.78;;;;;;;21.04;72.12;100697.75;3615900;39;20116;-66
2023/10/03 04:35:21;;;;;;;13.40;6.50;;;;;;;21.04;72.09;100686.81;3606591;39;20047;-66
2023/10/03 04:37:52;;;;;;;10.60;5.85;;;;;;;21.03;71.14;100696.06;3614351;39;20049;-67
2023/10/03 04:40:35;;;;;;;13.07;5.55;;;;;;;20.99;70.40;100694.66;3614434;39;20054;-66
2023/10/03 04:43:11;;;;;;;10.10;4.93;;;;;;;20.48;70.61;100624.59;3614948;39;20043;-68
2023/10/03 04:45:37;;;;;;;8.13;4.60;;;;;;;20.91;70.15;100694.63;3614336;39;20341;-66
2023/10/03 04:48:03;;;;;;;11.23;4.57;;;;;;;20.86;70.21;100688.81;3615719;39;20389;-66
2023/10/03 04:50:29;;;;;;;11.90;6.10;;;;;;;20.80;70.51;100706.69;3614391;39;20062;-66
2023/10/03 04:52:55;;;;;;;12.15;4.70;;;;;;;20.76;70.54;100707.22;3608142;39;20122;-66
2023/10/03 04:55:23;;;;;;;9.95;4.45;;;;;;;20.69;70.84;100715.22;3613643;39;20047;-67
2023/10/03 04:57:51;;;;;;;10.15;4.82;;;;;;;20.64;71.02;100715.69;3613054;39;20373;-67
2023/10/03 05:00:20;;;;;;;8.00;4.85;;;;;;;20.64;70.53;100723.88;3615895;39;20046;-67
2023/10/03 05:02:49;;;;;;;8.60;4.63;;;;;;;20.60;70.27;100711.56;3613358;39;20058;-67
2023/10/03 05:05:16;;;;;;;8.02;4.78;;;;;;;20.56;70.81;100704.72;3612186;39;20313;-67
2023/10/03 05:07:42;;;;;;;8.85;4.70;;;;;;;20.52;70.55;100699.75;3612864;39;20054;-67
2023/10/03 05:10:08;;;;;;;7.40;4.55;;;;;;;20.50;70.88;100716.28;3616546;39;20054;-68
2023/10/03 05:12:34;;;;;;;10.10;5.07;;;;;;;20.44;71.40;100727.84;3617311;39;20088;-68
2023/10/03 05:15:00;;;;;;;12.00;4.97;;;;;;;20.44;70.96;100738.75;3615514;39;20377;-67
2023/10/03 05:17:26;;;;;;;8.00;4.60;;;;;;;20.40;70.78;100759.22;3614487;39;20093;-67
2023/10/03 05:19:58;;;;;;;11.05;4.95;;;;;;;20.39;71.04;100763.84;3617688;39;20071;-68
2023/10/03 05:22:25;;;;;;;10.88;4.88;;;;;;;20.37;71.21;100765.00;3615744;39;20280;-67
2023/10/03 05:24:52;;;;;;;12.00;4.72;;;;;;;20.36;71.68;100749.63;3615638;39;20379;-67
2023/10/03 05:27:18;;;;;;;8.73;4.47;;;;;;;20.35;71.81;100745.19;3614930;39;20054;-66
2023/10/03 05:29:44;;;;;;;8.50;5.35;;;;;;;20.33;71.99;100728.09;3616072;39;20050;-67
2023/10/03 05:32:10;;;;;;;10.10;5.35;;;;;;;20.29;72.42;100721.25;3617283;39;20101;-67
2023/10/03 05:34:35;;;;;;;10.55;4.85;;;;;;;20.28;72.07;100719.56;3615709;39;20337;-67
2023/10/03 05:37:02;;;;;;;8.45;4.97;;;;;;;20.25;72.25;100722.59;3617116;39;20721;-68
2023/10/03 05:39:28;;;;;;;13.65;5.47;;;;;;;20.21;72.48;100727.53;3615740;39;20394;-67
2023/10/03 05:41:57;;;;;;;9.32;4.88;;;;;;;20.17;72.53;100737.91;3615820;39;20062;-66
2023/10/03 05:44:24;;;;;;;10.68;5.25;;;;;;;20.12;73.15;100740.25;3615498;39;20097;-68
2023/10/03 05:46:55;;;;;;;8.02;4.60;;;;;;;20.13;73.07;100741.09;3615756;39;20393;-66
2023/10/03 05:49:22;;;;;;;11.10;5.18;;;;;;;20.12;73.01;100745.72;3620770;39;20107;-66
2023/10/03 05:51:48;;;;;;;9.63;4.35;;;;;;;20.09;73.05;100740.56;3619251;39;20170;-68
2023/10/03 05:54:15;;;;;;;8.57;4.85;;;;;;;20.07;73.00;100744.47;3611276;39;20092;-67
2023/10/03 05:56:40;;;;;;;9.93;4.68;;;;;;;20.05;73.43;100739.19;3619196;39;20428;-67
2023/10/03 05:59:06;;;;;;;6.43;4.55;;;;;;;20.02;73.07;100742.22;3617363;39;20051;-67
2023/10/03 06:01:32;;;;;;;8.45;4.18;;;;;;;20.01;73.52;100742.38;3608018;39;20065;-67
2023/10/03 06:03:58;;;;;;;8.38;4.80;;;;;;;20.01;73.88;100751.41;3616176;39;20066;-67
2023/10/03 06:06:23;;;;;;;9.90;4.32;;;;;;;20.01;73.70;100747.81;3617968;39;20051;-67
2023/10/03 06:08:49;;;;;;;8.70;4.40;;;;;;;19.98;73.75;100749.03;3604243;39;20050;-66
2023/10/03 06:11:17;;;;;;;9.02;4.65;;;;;;;;;;3613519;39;20051;-65
2023/10/03 06:13:44;;;;;;;9.93;4.78;;;;;;;19.95;73.94;100749.34;3616600;39;20050;-66
2023/10/03 06:16:14;;;;;;;8.50;4.60;;;;;;;19.98;74.43;100745.41;3616981;39;20116;-66
2023/10/03 06:18:40;;;;;;;10.77;4.95;;;;;;;;;;3614443;39;20084;-65
2023/10/03 06:21:07;;;;;;;9.35;5.07;;;;;;;;;;3615183;39;20127;-64
2023/10/03 06:23:39;;;;;;;11.18;4.45;;;;;;;19.91;74.59;100756.94;3618791;39;20357;-66
2023/10/03 06:26:05;;;;;;;8.77;5.30;;;;;;;19.95;74.62;100776.63;3616389;39;20073;-66
2023/10/03 06:28:31;;;;;;;7.38;4.80;;;;;;;19.94;74.65;100774.88;3614958;39;20067;-66
2023/10/03 06:30:57;;;;;;;9.40;5.65;;;;;;;19.88;75.06;100772.78;3614451;39;20085;-65
2023/10/03 06:33:23;;;;;;;11.32;5.75;;;;;;;19.88;75.33;100765.44;3613955;39;20062;-66
2023/10/03 06:35:53;;;;;;;7.55;4.75;;;;;;;19.88;76.15;100770.06;3615562;39;20090;-66
2023/10/03 06:38:23;;;;;;;11.00;4.93;;;;;;;19.81;75.78;100763.50;3617866;39;20042;-65
2023/10/03 06:40:49;;;;;;;9.65;5.20;;;;;;;19.83;75.82;100775.13;3614907;39;20356;-66
2023/10/03 06:43:16;;;;;;;10.65;4.90;;;;;;;19.83;75.75;100784.19;3614378;39;20131;-66
2023/10/03 06:45:42;;;;;;;12.43;5.53;;;;;;;19.87;76.16;100796.47;3617711;39;21021;-64
2023/10/03 06:48:08;;;;;;;11.38;5.03;;;;;;;19.86;75.93;100792.03;3617779;39;20074;-65
2023/10/03 06:50:33;;;;;;;9.43;5.35;;;;;;;19.86;76.21;100802.97;3613267;39;20109;-65
2023/10/03 06:52:59;;;;;;;9.73;4.97;;;;;;;19.86;76.26;100804.84;3615376;39;20495;-65
2023/10/03 06:55:25;;;;;;;11.13;5.10;;;;;;;19.85;76.78;100814.00;3615382;39;20081;-64
2023/10/03 06:57:51;;;;;;;10.00;5.82;;;;;;;19.87;76.65;100817.44;3616096;39;20396;-67
2023/10/03 07:00:21;;;;;;;9.50;5.00;;;;;;;19.87;76.68;100822.91;3613246;39;20051;-66
2023/10/03 07:02:48;;;;;;;12.77;5.55;;;;;;;19.88;76.53;100813.69;3614872;39;20039;-67
2023/10/03 07:05:15;;;;;;;9.43;5.30;;;;;;;19.85;76.92;100814.91;3618688;39;20039;-67
2023/10/03 07:07:40;;;;;;;8.90;5.15;;;;;;;19.87;76.73;100825.63;3615064;39;20054;-66
2023/10/03 07:10:07;;;;;;;10.57;4.88;;;;;;;19.85;77.03;100814.91;3614480;39;20081;-65
2023/10/03 07:12:33;;;;;;;6.43;4.75;;;;;;;19.85;77.66;100822.19;3614875;39;20063;-66
2023/10/03 07:14:58;;;;;;;8.82;4.95;;;;;;;19.84;77.97;100826.81;3613487;39;20062;-67
2023/10/03 07:17:24;;;;;;;8.10;4.93;;;;;;;19.81;77.90;100818.06;3613816;39;20649;-67
2023/10/03 07:19:50;;;;;;;8.70;5.30;;;;;;;19.78;78.38;100818.38;3606460;39;20042;-65
2023/10/03 07:22:20;;;;;;;9.27;5.18;;;;;;;19.76;78.93;100823.13;3617170;39;20054;-67
2023/10/03 07:24:46;;;;;;;10.80;5.65;;;;;;;19.77;79.60;100830.31;3613699;39;20116;-65
2023/10/03 07:27:14;;;;;;;9.35;5.15;;;;;;;19.75;79.80;100832.31;3616517;39;20046;-67
2023/10/03 07:29:42;;;;;;;11.35;5.82;;;;;;;19.73;80.41;100848.88;3614765;39;20413;-65
2023/10/03 07:32:14;;;;;;;12.75;5.90;;;;;;;19.72;80.78;100833.50;3613856;39;20066;-67
2023/10/03 07:34:43;;;;;;;9.82;5.88;;;;;;;19.71;81.67;100827.19;3614517;39;20059;-66
2023/10/03 07:37:09;;;;;;;9.18;5.53;;;;;;;19.74;81.89;100847.00;3615042;39;20086;-66
2023/10/03 07:39:35;;;;;;;10.55;5.78;;;;;;;19.70;82.06;100835.53;3608815;39;20054;-66
2023/10/03 07:42:01;;;;;;;12.32;5.75;;;;;;;19.71;81.45;100843.53;3613568;39;20306;-67
2023/10/03 07:44:27;;;;;;;7.70;5.15;;;;;;;19.74;80.88;100849.72;3614331;39;20050;-66
2023/10/03 07:46:53;;;;;;;8.25;5.18;;;;;;;19.77;80.24;100865.78;3614998;39;20082;-65
2023/10/03 07:49:19;;;;;;;9.25;4.93;;;;;;;19.81;79.89;100883.53;3612722;39;20334;-66
2023/10/03 07:51:45;;;;;;;10.23;5.47;;;;;;;19.79;79.21;100880.09;3613000;39;20154;-67
2023/10/03 07:54:11;;;;;;;12.10;5.07;;;;;;;19.60;78.97;100865.56;3617744;39;20043;-65
2023/10/03 07:56:41;;;;;;;9.07;4.90;;;;;;;19.80;79.30;100884.56;3613977;39;20101;-66
2023/10/03 07:59:07;;;;;;;8.43;6.15;;;;;;;19.78;78.24;100873.78;3616385;39;20293;-66
2023/10/03 08:01:38;;;;;;;10.30;7.20;;;;;;;19.77;78.61;100869.34;3613727;39;20058;-65
2023/10/03 08:04:12;;;;;;;8.77;5.05;;;;;;;19.82;78.62;100885.25;3615295;39;20039;-66
2023/10/03 08:06:39;;;;;;;8.57;5.15;;;;;;;19.84;79.00;100888.69;3614107;39;20043;-66
2023/10/03 08:09:08;;;;;;;7.70;5.45;;;;;;;19.85;78.96;100904.94;3613941;39;20308;-66
2023/10/03 08:11:35;;;;;;;9.38;5.63;;;;;;;19.83;79.33;100926.03;3614593;39;20065;-66
2023/10/03 08:14:17;;;;;;;9.90;5.28;;;;;;;19.55;79.83;100889.69;3613972;39;20540;-66
2023/10/03 08:16:47;;;;;;;9.50;5.57;;;;;;;19.72;81.57;100928.94;3614214;39;20070;-68
2023/10/03 08:19:21;;;;;;;8.68;5.28;;;;;;;19.62;82.04;100933.56;3615326;39;20377;-67
2023/10/03 08:21:52;;;;;;;10.32;5.70;;;;;;;19.46;83.56;100951.44;3614239;39;20091;-67
2023/10/03 08:24:24;;;;;;;6.57;4.85;;;;;;;19.11;83.79;100924.88;3614859;39;20050;-67
2023/10/03 08:26:51;;;;;;;8.65;5.07;;;;;;;19.22;84.61;100956.56;3614873;39;20061;-67
2023/10/03 08:29:21;;;;;;;8.40;5.07;;;;;;;19.14;85.49;100957.28;3612670;39;20054;-66
2023/10/03 08:31:57;;;;;;;7.13;4.68;;;;;;;19.09;85.63;100962.28;3614626;39;20394;-67
2023/10/03 08:34:27;;;;;;;8.48;4.50;;;;;;;19.08;85.38;100968.75;3612275;39;20123;-67
2023/10/03 08:36:58;;;;;;;7.15;3.92;;;;;;;19.06;84.69;100975.34;3612373;39;20401;-67
2023/10/03 08:39:25;;;;;;;5.55;3.22;;;;;;;18.93;83.55;100948.41;3619254;39;20059;-66
2023/10/03 08:42:12;;;;;;;7.90;3.35;;;;;;;19.05;84.00;100984.56;3615569;39;20051;-66
2023/10/03 08:44:52;;;;;;;5.75;3.03;;;;;;;19.08;83.20;100982.38;3614490;39;20081;-67
2023/10/03 08:47:28;;;;;;;5.10;2.80;;;;;;;19.10;83.22;100999.47;3613719;39;20342;-67
2023/10/03 08:50:10;;;;;;;4.93;2.75;;;;;;;19.15;82.37;101008.03;3616536;39;20122;-66
2023/10/03 08:52:47;;;;;;;7.32;2.80;;;;;;;19.15;81.46;101005.31;3616797;39;20046;-65
2023/10/03 08:55:20;;;;;;;3.55;2.20;;;;;;;19.15;80.66;101005.31;3616242;39;20108;-66
2023/10/03 08:57:48;;;;;;;6.57;2.30;;;;;;;19.17;81.58;101010.63;3617684;39;20415;-66
2023/10/03 09:00:15;;;;;;;5.28;1.98;;;;;;;19.18;80.63;101015.91;3614904;39;20054;-66
2023/10/03 09:02:45;;;;;;;5.20;2.42;;;;;;;19.16;80.32;101028.84;3617363;39;20147;-67
2023/10/03 09:05:20;;;;;;;3.67;1.70;;;;;;;19.05;79.86;101039.91;3615808;39;20050;-66
2023/10/03 09:07:48;;;;;;;2.13;1.15;;;;;;;18.91;78.36;101056.69;3615749;39;20043;-66
2023/10/03 09:10:23;;;;;;;1.58;0.98;;;;;;;18.69;78.71;101050.47;3616402;39;20055;-64
2023/10/03 09:12:52;;;;;;;2.47;0.65;;;;;;;18.58;79.24;101057.91;3618354;39;20409;-67
2023/10/03 09:15:22;;;;;;;2.30;0.85;;;;;;;18.44;79.98;101045.56;3614821;39;20375;-66
2023/10/03 09:17:50;;;;;;;1.02;0.55;;;;;;;18.53;79.97;101066.50;3615709;39;20108;-66
2023/10/03 09:20:22;;;;;;;1.65;0.75;;;;;;;18.52;81.18;101081.09;3612747;39;20149;-66
2023/10/03 09:22:49;;;;;;;2.13;0.70;;;;;;;18.53;80.43;101091.03;3616000;39;20095;-66
2023/10/03 09:25:21;;;;;;;1.40;0.68;;;;;;;18.55;80.33;101105.34;3617276;39;20080;-66
2023/10/03 09:27:47;;;;;;;3.35;1.00;;;;;;;18.56;80.42;101109.78;3616508;39;20090;-65
2023/10/03 09:30:22;;;;;;;3.80;1.60;;;;;;;17.96;80.30;101002.78;3608320;39;20500;-67
2023/10/03 09:32:50;;;;;;;1.92;0.93;;;;;;;18.59;79.59;101114.09;3614495;39;20059;-66
2023/10/03 09:35:17;;;;;;;4.63;1.58;;;;;;;18.59;78.83;101117.69;3603996;39;20050;-66
2023/10/03 09:37:48;;;;;;;2.38;1.20;;;;;;;18.62;79.84;101109.25;3616145;39;20051;-65
2023/10/03 09:40:17;;;;;;;2.83;0.80;;;;;;;18.62;78.85;101108.38;3616930;39;20061;-65
2023/10/03 09:42:48;;;;;;;2.35;1.10;;;;;;;18.63;79.63;101102.78;3609335;39;20083;-66
2023/10/03 09:45:24;;;;;;;4.28;1.20;;;;;;;18.67;79.02;101106.09;3616751;39;20274;-65
2023/10/03 09:47:58;;;;;;;2.47;1.08;;;;;;;18.65;79.82;101119.84;3615921;39;20043;-65
2023/10/03 09:50:30;;;;;;;2.80;1.10;;;;;;;18.63;80.63;101124.56;3613644;39;20041;-66
2023/10/03 09:53:01;;;;;;;2.47;1.20;;;;;;;18.59;79.92;101125.84;3617576;39;20091;-67
2023/10/03 09:55:41;;;;;;;3.95;1.42;;;;;;;18.53;81.44;101131.84;3617823;39;20370;-65
2023/10/03 09:58:08;;;;;;;4.60;1.30;;;;;;;18.47;82.59;101133.25;3616594;39;20049;-65
2023/10/03 10:00:53;;;;;;;5.28;1.88;;;;;;;18.50;83.08;101132.13;3616723;39;20062;-66
2023/10/03 10:03:28;;;;;;;3.65;1.35;;;;;;;18.46;83.68;101125.25;3616493;39;20266;-65
2023/10/03 10:06:22;;;;;;;3.30;1.23;;;;;;;18.58;82.88;101150.47;3615178;39;20092;-67
2023/10/03 10:09:13;;;;;;;3.50;1.15;;;;;;;18.67;82.77;101166.84;3620572;39;20054;-65
2023/10/03 10:12:18;;;;;;;6.30;1.27;;;;;;;18.71;80.19;101149.25;3614845;39;20092;-65
2023/10/03 10:15:21;;;;;;;3.67;1.30;;;;;;;18.78;77.89;101163.19;3618445;39;20055;-65
2023/10/03 10:17:54;;;;;;;3.70;1.35;;;;;;;18.57;77.27;101152.34;3617869;39;20120;-66
2023/10/03 10:20:32;;;;;;;4.18;1.48;;;;;;;18.68;76.82;101195.81;3618879;39;20453;-67
2023/10/03 10:23:02;;;;;;;3.47;1.58;;;;;;;18.64;77.53;101193.50;3615035;39;20039;-66
2023/10/03 10:25:30;;;;;;;2.33;1.30;;;;;;;18.61;78.47;101202.81;3613749;39;20284;-67
2023/10/03 10:28:06;;;;;;;3.67;1.20;;;;;;;18.51;79.22;101210.94;3615019;39;20051;-66
2023/10/03 10:30:33;;;;;;;3.75;1.20;;;;;;;18.51;80.13;101215.53;3616193;39;20068;-66
2023/10/03 10:33:23;;;;;;;2.60;1.42;;;;;;;18.54;80.83;101212.53;3613710;39;20430;-65
2023/10/03 10:36:08;;;;;;;5.47;2.03;;;;;;;18.50;80.53;101192.88;3617149;39;20113;-66
2023/10/03 10:38:34;;;;;;;3.00;1.10;;;;;;;18.74;80.51;101208.91;3616604;39;20047;-66
2023/10/03 10:41:17;;;;;;;3.70;1.50;;;;;;;18.81;79.34;101230.13;3614798;39;20047;-66
2023/10/03 10:44:14;;;;;;;3.13;1.27;;;;;;;18.95;77.34;101235.22;3616382;39;20049;-66
2023/10/03 10:46:44;;;;;;;2.53;0.90;;;;;;;19.09;75.38;101248.41;3617011;39;20050;-66
2023/10/03 10:49:35;;;;;;;1.95;0.85;;;;;;;19.03;72.51;101254.47;3615191;39;20047;-66
2023/10/03 10:52:09;;;;;;;0.47;0.47;;;;;;;18.97;73.43;101255.00;3617274;39;20046;-65
2023/10/03 10:54:41;;;;;;;0.63;0.40;;;;;;;18.91;71.97;101247.38;3616539;39;20469;-67
2023/10/03 10:57:11;;;;;;;5.38;2.30;;;;;;;18.85;73.89;101250.66;3617133;39;20050;-66
2023/10/03 10:59:41;;;;;;;1.67;0.55;;;;;;;18.59;76.22;101253.84;3615987;39;20073;-66
2023/10/03 11:02:26;;;;;;;0.93;0.47;;;;;;;18.40;77.99;101264.63;3615641;39;20055;-67
2023/10/03 11:04:59;;;;;;;1.48;0.43;;;;;;;18.27;78.57;101268.41;3616931;39;20114;-67
2023/10/03 11:07:31;;;;;;;2.03;0.73;;;;;;;18.18;78.58;101274.66;3616579;39;20054;-67
2023/10/03 11:10:08;;;;;;;1.05;0.60;;;;;;;18.14;80.81;101267.78;3614357;39;20054;-67
2023/10/03 11:12:35;;;;;;;1.92;0.75;;;;;;;18.12;81.99;101286.06;3616858;39;20154;-67
2023/10/03 11:15:01;;;;;;;1.70;0.50;;;;;;;18.01;83.49;101277.97;3616589;39;20092;-68
2023/10/03 11:17:28;;;;;;;1.98;0.75;;;;;;;17.91;84.09;101277.03;3616438;39;20724;-67
2023/10/03 11:19:55;;;;;;;1.05;0.50;;;;;;;17.82;84.59;101265.97;3618043;39;20061;-67
2023/10/03 11:22:22;;;;;;;1.23;0.82;;;;;;;17.86;84.40;101270.13;3614503;39;20069;-66
2023/10/03 11:24:48;;;;;;;5.90;0.70;;;;;;;17.97;84.76;101273.78;3614515;39;20058;-68
2023/10/03 11:27:31;;;;;;;2.10;0.90;;;;;;;18.28;85.98;101285.59;3616403;39;20054;-67
2023/10/03 11:29:57;;;;;;;1.38;0.60;;;;;;;18.50;84.34;101263.66;3616934;39;20119;-67
2023/10/03 11:32:30;;;;;;;0.60;0.50;;;;;;;18.79;80.28;101285.63;3616228;39;20046;-67
2023/10/03 11:34:58;;;;;;;3.08;1.02;;;;;;;18.94;79.76;101298.88;3602885;39;20058;-66